createdAt,value
2023-02-28T00:00:18.494Z,3.31
2023-02-28T00:03:09.242Z,3.29
2023-02-28T00:05:40.216Z,3.29
2023-02-28T00:08:11.008Z,3.31
2023-02-28T00:10:41.929Z,3.32
2023-02-28T00:13:13.235Z,3.31
2023-02-28T00:15:44.044Z,3.28
2023-02-28T00:18:14.966Z,3.25
2023-02-28T00:20:46.035Z,3.25
2023-02-28T00:23:16.761Z,3.26
2023-02-28T00:25:47.739Z,3.29
2023-02-28T00:28:18.660Z,3.31
2023-02-28T00:30:49.667Z,3.33
2023-02-28T00:33:20.671Z,3.36
2023-02-28T00:35:51.616Z,3.37
2023-02-28T00:38:22.482Z,3.40
2023-02-28T00:40:53.262Z,3.39
2023-02-28T00:43:23.988Z,3.40
2023-02-28T00:45:54.837Z,3.42
2023-02-28T00:48:25.829Z,3.45
2023-02-28T00:50:56.531Z,3.45
2023-02-28T00:53:27.338Z,3.41
2023-02-28T00:55:58.284Z,3.36
2023-02-28T00:58:28.981Z,3.33
2023-02-28T01:00:59.810Z,3.33
2023-02-28T01:03:30.881Z,3.33
2023-02-28T01:06:01.860Z,3.36
2023-02-28T01:08:32.809Z,3.40
2023-02-28T01:11:10.774Z,3.39
2023-02-28T01:13:41.594Z,3.33
2023-02-28T01:16:12.428Z,3.32
2023-02-28T01:18:43.314Z,3.31
2023-02-28T01:21:14.817Z,3.34
2023-02-28T01:23:45.900Z,3.36
2023-02-28T01:26:17.593Z,3.36
2023-02-28T01:28:48.534Z,3.33
2023-02-28T01:31:19.489Z,3.31
2023-02-28T01:33:50.520Z,3.31
2023-02-28T01:36:21.836Z,3.33
2023-02-28T01:38:52.899Z,3.35
2023-02-28T01:41:25.058Z,3.39
2023-02-28T01:43:58.139Z,3.43
2023-02-28T01:46:29.134Z,3.46
2023-02-28T01:49:01.721Z,3.48
2023-02-28T01:51:33.850Z,3.49
2023-02-28T01:54:05.940Z,3.50
2023-02-28T01:56:37.406Z,3.47
2023-02-28T01:59:08.312Z,3.43
2023-02-28T02:01:39.180Z,3.40
2023-02-28T02:04:09.914Z,3.40
2023-02-28T02:06:41.897Z,3.41
2023-02-28T02:09:12.847Z,3.37
2023-02-28T02:11:44.386Z,3.34
2023-02-28T02:14:18.263Z,3.34
2023-02-28T02:16:53.393Z,3.34
2023-02-28T02:19:39.818Z,3.34
2023-02-28T02:22:20.877Z,3.31
2023-02-28T02:25:14.195Z,3.25
2023-02-28T02:28:02.174Z,3.22
2023-02-28T02:30:47.883Z,3.24
2023-02-28T02:33:40.941Z,3.24
2023-02-28T02:36:12.578Z,3.26
2023-02-28T02:38:44.878Z,3.28
2023-02-28T02:41:16.936Z,3.29
2023-02-28T02:43:49.255Z,3.32
2023-02-28T02:46:21.779Z,3.35
2023-02-28T02:48:52.777Z,3.35
2023-02-28T02:51:23.618Z,3.33
2023-02-28T02:53:55.250Z,3.34
2023-02-28T02:56:27.412Z,3.35
2023-02-28T02:58:59.821Z,3.35
2023-02-28T03:01:30.962Z,3.32
2023-02-28T03:04:03.582Z,3.32
2023-02-28T03:06:34.489Z,3.30
2023-02-28T03:09:05.640Z,3.29
2023-02-28T03:11:36.670Z,3.30
2023-02-28T03:14:13.369Z,3.27
2023-02-28T03:16:48.568Z,3.24
2023-02-28T03:19:24.073Z,3.24
2023-02-28T03:21:57.349Z,3.23
2023-02-28T03:24:29.358Z,3.21
2023-02-28T03:27:02.090Z,3.16
2023-02-28T03:29:34.741Z,3.14
2023-02-28T03:32:06.964Z,3.14
2023-02-28T03:34:38.881Z,3.11
2023-02-28T03:37:10.481Z,3.08
2023-02-28T03:39:42.547Z,3.08
2023-02-28T03:42:13.858Z,3.07
2023-02-28T03:44:45.158Z,3.04
2023-02-28T03:47:16.562Z,3.03
2023-02-28T03:49:49.036Z,3.06
2023-02-28T03:52:20.171Z,3.08
2023-02-28T03:54:52.779Z,3.09
2023-02-28T03:57:25.574Z,3.11
2023-02-28T03:59:57.008Z,3.11
2023-02-28T04:02:27.955Z,3.09
2023-02-28T04:05:00.760Z,3.08
2023-02-28T04:07:32.920Z,3.08
2023-02-28T04:10:03.949Z,3.08
2023-02-28T04:12:34.888Z,3.06
2023-02-28T04:15:06.695Z,3.04
2023-02-28T04:17:37.612Z,3.04
2023-02-28T04:20:10.817Z,3.03
2023-02-28T04:22:41.664Z,3.01
2023-02-28T04:25:12.667Z,2.99
2023-02-28T04:27:45.569Z,2.97
2023-02-28T04:30:16.742Z,2.95
2023-02-28T04:32:47.799Z,2.92
2023-02-28T04:35:18.687Z,2.91
2023-02-28T04:37:49.682Z,2.92
2023-02-28T04:40:20.638Z,2.96
2023-02-28T04:42:51.744Z,3.00
2023-02-28T04:45:22.681Z,3.04
2023-02-28T04:47:54.706Z,3.05
2023-02-28T04:50:25.919Z,3.05
2023-02-28T04:52:57.074Z,3.04
2023-02-28T04:55:27.954Z,3.03
2023-02-28T04:57:58.990Z,3.04
2023-02-28T05:00:32.193Z,3.04
2023-02-28T05:03:04.754Z,3.03
2023-02-28T05:05:36.454Z,3.02
2023-02-28T05:08:07.836Z,3.02
2023-02-28T05:10:38.961Z,3.05
2023-02-28T05:13:11.327Z,3.04
2023-02-28T05:15:42.585Z,3.03
2023-02-28T05:18:13.561Z,3.03
2023-02-28T05:20:44.440Z,3.04
2023-02-28T05:23:15.713Z,3.05
2023-02-28T05:25:46.875Z,3.08
2023-02-28T05:28:18.059Z,3.10
2023-02-28T05:30:48.970Z,3.13
2023-02-28T05:33:19.701Z,3.17
2023-02-28T05:35:50.612Z,3.22
2023-02-28T05:38:21.531Z,3.22
2023-02-28T05:40:52.990Z,3.17
2023-02-28T05:43:23.882Z,3.10
2023-02-28T05:45:54.917Z,3.08
2023-02-28T05:48:27.238Z,3.07
2023-02-28T05:50:57.905Z,3.07
2023-02-28T05:53:28.857Z,3.09
2023-02-28T05:55:59.768Z,3.08
2023-02-28T05:58:32.124Z,3.10
2023-02-28T06:01:03.518Z,3.14
2023-02-28T06:03:34.372Z,3.19
2023-02-28T06:06:05.598Z,3.21
2023-02-28T06:08:36.168Z,3.20
2023-02-28T06:11:07.861Z,3.19
2023-02-28T06:13:38.765Z,3.18
2023-02-28T06:16:10.520Z,3.16
2023-02-28T06:18:41.691Z,3.16
2023-02-28T06:21:12.444Z,3.17
2023-02-28T06:23:43.396Z,3.20
2023-02-28T06:26:14.398Z,3.27
2023-02-28T06:28:45.309Z,3.30
2023-02-28T06:31:17.357Z,3.32
2023-02-28T06:33:48.463Z,3.34
2023-02-28T06:36:19.699Z,3.38
2023-02-28T06:38:55.710Z,3.43
2023-02-28T06:41:28.389Z,3.48
2023-02-28T06:43:59.889Z,3.51
2023-02-28T06:46:30.905Z,3.51
2023-02-28T06:49:01.789Z,3.50
2023-02-28T06:51:32.556Z,3.49
2023-02-28T06:54:03.376Z,3.49
2023-02-28T06:56:34.227Z,3.49
2023-02-28T06:59:05.236Z,3.50
2023-02-28T07:01:36.063Z,3.50
2023-02-28T07:04:07.225Z,3.57
2023-02-28T07:06:38.196Z,3.59
2023-02-28T07:09:09.344Z,3.61
2023-02-28T07:11:40.099Z,3.63
2023-02-28T07:14:11.090Z,3.63
2023-02-28T07:16:41.897Z,3.63
2023-02-28T07:19:12.632Z,3.65
2023-02-28T07:21:43.528Z,3.62
2023-02-28T07:24:16.818Z,3.59
2023-02-28T07:26:47.828Z,3.56
2023-02-28T07:29:18.771Z,3.51
2023-02-28T07:31:51.552Z,3.50
2023-02-28T07:34:22.534Z,3.54
2023-02-28T07:36:54.701Z,3.55
2023-02-28T07:39:25.933Z,3.56
2023-02-28T07:41:57.120Z,3.59
2023-02-28T07:44:28.081Z,3.61
2023-02-28T07:46:59.029Z,3.63
2023-02-28T07:49:30.069Z,3.67
2023-02-28T07:52:01.025Z,3.72
2023-02-28T07:54:31.957Z,3.77
2023-02-28T07:57:03.130Z,3.80
2023-02-28T07:59:34.125Z,3.84
2023-02-28T08:02:04.950Z,3.85
2023-02-28T08:04:36.470Z,3.82
2023-02-28T08:07:07.367Z,3.80
2023-02-28T08:09:38.351Z,3.84
2023-02-28T08:12:09.710Z,3.89
2023-02-28T08:14:40.781Z,3.90
2023-02-28T08:17:11.752Z,3.88
2023-02-28T08:19:42.492Z,3.88
2023-02-28T08:22:13.324Z,3.88
2023-02-28T08:24:44.826Z,3.87
2023-02-28T08:27:15.720Z,3.91
2023-02-28T08:29:46.505Z,3.94
2023-02-28T08:32:28.893Z,4.00
2023-02-28T08:35:00.898Z,4.04
2023-02-28T08:37:31.540Z,4.03
2023-02-28T08:40:02.508Z,4.02
2023-02-28T08:42:33.326Z,3.99
2023-02-28T08:45:04.115Z,4.01
2023-02-28T08:47:34.860Z,3.98
2023-02-28T08:50:06.714Z,3.96
2023-02-28T08:52:37.676Z,3.95
2023-02-28T08:55:10.532Z,3.94
2023-02-28T08:57:41.615Z,3.92
2023-02-28T09:00:14.831Z,3.92
2023-02-28T09:02:45.651Z,3.95
2023-02-28T09:05:16.500Z,3.95
2023-02-28T09:07:47.524Z,3.96
2023-02-28T09:10:19.420Z,4.01
2023-02-28T09:12:50.305Z,4.06
2023-02-28T09:15:21.444Z,4.10
2023-02-28T09:17:52.376Z,4.13
2023-02-28T09:20:23.179Z,4.12
2023-02-28T09:22:54.007Z,4.10
2023-02-28T09:25:25.724Z,4.09
2023-02-28T09:27:57.162Z,4.09
2023-02-28T09:30:28.600Z,4.09
2023-02-28T09:32:59.616Z,4.12
2023-02-28T09:35:31.776Z,4.15
2023-02-28T09:38:03.850Z,4.13
2023-02-28T09:40:35.540Z,4.14
2023-02-28T09:43:06.797Z,4.13
2023-02-28T09:45:38.255Z,4.13
2023-02-28T09:48:12.601Z,4.13
2023-02-28T09:50:44.956Z,4.14
2023-02-28T09:53:18.022Z,4.17
2023-02-28T09:55:49.627Z,4.18
2023-02-28T09:58:21.505Z,4.18
2023-02-28T10:00:54.439Z,4.19
2023-02-28T10:03:29.608Z,4.25
2023-02-28T10:06:04.047Z,4.29
2023-02-28T10:08:37.195Z,4.28
2023-02-28T10:11:10.233Z,4.26
2023-02-28T10:13:42.214Z,4.26
2023-02-28T10:16:14.193Z,4.28
2023-02-28T10:18:46.420Z,4.30
2023-02-28T10:21:20.729Z,4.32
2023-02-28T10:23:52.169Z,4.32
2023-02-28T10:26:24.968Z,4.35
2023-02-28T10:28:56.196Z,4.48
2023-02-28T10:31:27.681Z,4.57
2023-02-28T10:34:22.602Z,4.58
2023-02-28T10:36:53.648Z,4.53
2023-02-28T10:39:42.553Z,4.56
2023-02-28T10:42:26.581Z,4.55
2023-02-28T10:45:09.276Z,4.54
2023-02-28T10:47:40.763Z,4.53
2023-02-28T10:50:14.581Z,4.55
2023-02-28T10:52:45.808Z,4.60
2023-02-28T10:55:19.252Z,4.62
2023-02-28T10:57:50.358Z,4.66
2023-02-28T11:00:24.195Z,4.68
2023-02-28T11:02:55.957Z,4.66
2023-02-28T11:05:29.178Z,4.61
2023-02-28T11:08:02.359Z,4.59
2023-02-28T11:10:36.198Z,4.62
2023-02-28T11:13:08.309Z,4.62
2023-02-28T11:15:40.230Z,4.62
2023-02-28T11:18:20.043Z,4.60
2023-02-28T11:20:52.185Z,4.60
2023-02-28T11:23:23.705Z,4.61
2023-02-28T11:25:56.087Z,4.61
2023-02-28T11:28:29.476Z,4.63
2023-02-28T11:31:05.940Z,4.65
2023-02-28T11:33:42.775Z,4.70
2023-02-28T11:36:15.300Z,4.69
2023-02-28T11:38:46.880Z,4.71
2023-02-28T11:41:29.722Z,4.74
2023-02-28T11:44:06.053Z,4.76
2023-02-28T11:46:39.640Z,4.80
2023-02-28T11:49:16.601Z,4.81
2023-02-28T11:51:50.195Z,4.80
2023-02-28T12:00:34.183Z,4.90
2023-02-28T12:03:09.657Z,4.90
2023-02-28T12:05:44.980Z,4.88
2023-02-28T12:08:21.561Z,4.87
2023-02-28T12:10:55.400Z,4.86
2023-02-28T12:13:29.332Z,4.84
2023-02-28T12:16:22.667Z,4.82
2023-02-28T12:19:06.083Z,4.82
2023-02-28T12:21:39.643Z,4.83
2023-02-28T12:24:20.712Z,4.80
2023-02-28T12:26:51.605Z,4.80
2023-02-28T12:29:25.253Z,4.83
2023-02-28T12:31:57.588Z,4.86
2023-02-28T12:34:30.192Z,4.86
2023-02-28T12:37:01.593Z,4.88
2023-02-28T12:39:41.744Z,4.84
2023-02-28T12:42:21.865Z,4.83
2023-02-28T12:44:54.230Z,4.84
2023-02-28T12:47:25.293Z,4.82
2023-02-28T12:49:57.783Z,4.83
2023-02-28T12:52:30.969Z,4.82
2023-02-28T12:55:03.253Z,4.84
2023-02-28T12:57:38.024Z,4.90
2023-02-28T13:00:13.307Z,4.91
2023-02-28T13:02:51.468Z,4.89
2023-02-28T13:05:33.779Z,4.90
2023-02-28T13:08:10.004Z,4.87
2023-02-28T13:10:44.548Z,4.83
2023-02-28T13:13:19.355Z,4.81
2023-02-28T13:16:04.292Z,4.84
2023-02-28T13:18:40.811Z,4.88
2023-02-28T13:21:12.298Z,4.92
2023-02-28T13:23:59.589Z,4.98
2023-02-28T13:26:56.292Z,5.04
2023-02-28T13:29:31.676Z,5.05
2023-02-28T13:32:19.603Z,5.05
2023-02-28T13:35:11.569Z,5.00
2023-02-28T13:37:45.899Z,4.98
2023-02-28T13:40:38.324Z,4.99
2023-02-28T13:43:11.514Z,4.95
2023-02-28T13:45:42.385Z,4.91
2023-02-28T13:48:20.408Z,4.92
2023-02-28T13:50:51.316Z,4.93
2023-02-28T13:53:44.931Z,4.97
2023-02-28T13:56:28.173Z,5.02
2023-02-28T13:59:01.178Z,5.04
2023-02-28T14:01:37.422Z,5.02
2023-02-28T14:04:17.237Z,4.99
2023-02-28T14:06:50.823Z,4.98
2023-02-28T14:09:24.899Z,5.00
2023-02-28T14:11:55.874Z,5.01
2023-02-28T14:14:43.016Z,5.02
2023-02-28T14:17:16.668Z,5.05
2023-02-28T14:19:51.121Z,5.11
2023-02-28T14:22:24.483Z,5.13
2023-02-28T14:25:10.419Z,5.12
2023-02-28T14:27:43.970Z,5.08
2023-02-28T14:30:22.516Z,5.09
2023-02-28T14:32:54.144Z,5.10
2023-02-28T14:35:29.978Z,5.10
2023-02-28T14:38:00.863Z,5.09
2023-02-28T14:40:32.503Z,5.08
2023-02-28T14:43:04.089Z,5.09
2023-02-28T14:45:35.375Z,5.10
2023-02-28T14:48:06.579Z,5.11
2023-02-28T14:50:38.317Z,5.14
2023-02-28T14:53:12.607Z,5.17
2023-02-28T14:55:45.995Z,5.18
2023-02-28T14:58:22.615Z,5.19
2023-02-28T15:00:55.023Z,5.19
2023-02-28T15:03:26.597Z,5.18
2023-02-28T15:05:58.212Z,5.17
2023-02-28T15:08:30.423Z,5.20
2023-02-28T15:11:01.632Z,5.24
2023-02-28T15:13:41.177Z,5.26
2023-02-28T15:16:12.866Z,5.27
2023-02-28T15:18:49.194Z,5.25
2023-02-28T15:21:20.734Z,5.18
2023-02-28T15:23:53.327Z,5.10
2023-02-28T15:26:25.090Z,5.06
2023-02-28T15:28:57.547Z,5.04
2023-02-28T15:31:36.929Z,5.04
2023-02-28T15:34:18.746Z,5.06
2023-02-28T15:36:49.809Z,5.06
2023-02-28T15:39:22.748Z,5.06
2023-02-28T15:41:53.662Z,5.07
2023-02-28T15:44:30.978Z,5.09
2023-02-28T15:47:03.681Z,5.11
2023-02-28T15:49:42.666Z,5.11
2023-02-28T15:52:17.929Z,5.09
2023-02-28T15:54:48.854Z,5.07
2023-02-28T15:57:20.567Z,5.05
2023-02-28T15:59:53.507Z,5.03
2023-02-28T16:02:25.051Z,5.02
2023-02-28T16:05:03.339Z,5.03
2023-02-28T16:07:34.283Z,5.03
2023-02-28T16:10:05.244Z,5.05
2023-02-28T16:12:36.886Z,5.08
2023-02-28T16:15:09.987Z,5.09
2023-02-28T16:17:41.071Z,5.08
2023-02-28T16:20:16.406Z,5.06
2023-02-28T16:22:47.304Z,5.05
2023-02-28T16:25:18.583Z,5.04
2023-02-28T16:27:51.139Z,5.04
2023-02-28T16:30:23.349Z,5.05
2023-02-28T16:32:54.455Z,5.05
2023-02-28T16:35:25.857Z,5.05
2023-02-28T16:37:56.689Z,5.06
2023-02-28T16:40:29.695Z,5.05
2023-02-28T16:43:01.277Z,5.02
2023-02-28T16:45:32.159Z,5.01
2023-02-28T16:48:02.972Z,5.00
2023-02-28T16:50:34.536Z,4.99
2023-02-28T16:53:05.422Z,4.97
2023-02-28T16:55:36.769Z,4.94
2023-02-28T16:58:07.565Z,4.94
2023-02-28T17:00:38.278Z,4.95
2023-02-28T17:03:11.714Z,4.96
2023-02-28T17:05:42.743Z,4.96
2023-02-28T17:08:13.592Z,4.98
2023-02-28T17:10:44.522Z,5.02
2023-02-28T17:13:15.604Z,5.03
2023-02-28T17:15:47.571Z,5.01
2023-02-28T17:18:20.958Z,5.00
2023-02-28T17:20:51.621Z,5.00
2023-02-28T17:23:22.308Z,4.99
2023-02-28T17:25:57.925Z,4.98
2023-02-28T17:28:29.104Z,4.94
2023-02-28T17:30:59.882Z,4.91
2023-02-28T17:33:30.777Z,4.89
2023-02-28T17:36:01.513Z,4.89
2023-02-28T17:38:32.214Z,4.89
2023-02-28T17:41:03.680Z,4.87
2023-02-28T17:43:34.621Z,4.86
2023-02-28T17:46:06.274Z,4.88
2023-02-28T17:48:37.509Z,4.91
2023-02-28T17:51:08.521Z,4.95
2023-02-28T17:53:39.349Z,5.01
2023-02-28T17:56:12.962Z,5.00
2023-02-28T17:58:43.735Z,5.02
2023-02-28T18:01:14.464Z,5.05
2023-02-28T18:03:45.187Z,5.09
2023-02-28T18:06:17.613Z,5.09
2023-02-28T18:08:48.567Z,5.09
2023-02-28T18:11:19.457Z,5.05
2023-02-28T18:13:51.378Z,5.03
2023-02-28T18:16:23.330Z,5.02
2023-02-28T18:18:54.278Z,5.01
2023-02-28T18:21:25.104Z,5.02
2023-02-28T18:23:55.875Z,5.02
2023-02-28T18:26:26.753Z,5.02
2023-02-28T18:28:57.501Z,5.03
2023-02-28T18:31:28.322Z,5.00
2023-02-28T18:33:59.171Z,4.95
2023-02-28T18:36:30.373Z,4.92
2023-02-28T18:39:02.704Z,4.90
2023-02-28T18:41:33.627Z,4.90
2023-02-28T18:44:13.710Z,4.90
2023-02-28T18:46:49.748Z,4.88
2023-02-28T18:49:20.736Z,4.87
2023-02-28T18:51:51.660Z,4.85
2023-02-28T18:54:22.550Z,4.84
2023-02-28T18:56:54.958Z,4.83
2023-02-28T18:59:25.640Z,4.83
2023-02-28T19:01:56.416Z,4.84
2023-02-28T19:04:27.295Z,4.88
2023-02-28T19:06:57.948Z,4.91
2023-02-28T19:09:31.767Z,4.94
2023-02-28T19:12:02.780Z,4.92
2023-02-28T19:14:33.670Z,4.90
2023-02-28T19:17:04.485Z,4.87
2023-02-28T19:19:35.263Z,4.87
2023-02-28T19:22:06.108Z,4.88
2023-02-28T19:24:36.979Z,4.89
2023-02-28T19:27:07.890Z,4.90
2023-02-28T19:29:38.729Z,4.90
2023-02-28T19:32:09.552Z,4.88
2023-02-28T19:34:40.607Z,4.86
2023-02-28T19:37:11.432Z,4.83
2023-02-28T19:39:44.417Z,4.81
2023-02-28T19:42:15.926Z,4.81
2023-02-28T19:44:46.707Z,4.79
2023-02-28T19:47:17.528Z,4.78
2023-02-28T19:49:48.326Z,4.78
2023-02-28T19:52:19.052Z,4.83
2023-02-28T19:54:49.955Z,4.86
2023-02-28T19:57:20.784Z,4.89
2023-02-28T19:59:52.079Z,4.91
2023-02-28T20:02:23.518Z,4.94
2023-02-28T20:04:58.715Z,4.90
2023-02-28T20:07:32.182Z,4.87
2023-02-28T20:10:03.132Z,4.84
2023-02-28T20:12:33.956Z,4.85
2023-02-28T20:15:05.052Z,4.86
2023-02-28T20:17:35.915Z,4.84
2023-02-28T20:20:11.621Z,4.86
2023-02-28T20:22:42.456Z,4.89
2023-02-28T20:25:13.219Z,4.91
2023-02-28T20:27:44.270Z,4.93
2023-02-28T20:30:15.501Z,4.96
2023-02-28T20:32:46.330Z,4.97
2023-02-28T20:35:17.422Z,4.96
2023-02-28T20:37:48.311Z,4.92
2023-02-28T20:40:19.494Z,4.90
2023-02-28T20:42:50.272Z,4.91
2023-02-28T20:45:21.223Z,4.93
2023-02-28T20:47:52.158Z,4.95
2023-02-28T20:50:23.028Z,4.98
2023-02-28T20:52:54.015Z,5.00
2023-02-28T20:55:25.050Z,5.01
2023-02-28T20:57:56.519Z,5.01
2023-02-28T21:00:27.416Z,4.99
2023-02-28T21:02:58.989Z,4.98
2023-02-28T21:05:30.213Z,4.96
2023-02-28T21:08:01.139Z,4.94
2023-02-28T21:10:32.482Z,4.93
2023-02-28T21:13:03.426Z,4.94
2023-02-28T21:15:37.918Z,4.95
2023-02-28T21:18:26.490Z,4.98
2023-02-28T21:20:57.235Z,4.97
2023-02-28T21:23:28.039Z,4.99
2023-02-28T21:26:00.579Z,4.99
2023-02-28T21:28:31.500Z,4.98
2023-02-28T21:31:05.743Z,4.96
2023-02-28T21:33:36.550Z,4.98
2023-02-28T21:36:08.407Z,5.00
2023-02-28T21:38:39.591Z,5.01
2023-02-28T21:41:10.931Z,5.02
2023-02-28T21:43:42.122Z,5.03
2023-02-28T21:46:13.838Z,5.03
2023-02-28T21:48:44.964Z,5.01
2023-02-28T21:51:16.324Z,4.97
2023-02-28T21:53:48.409Z,4.92
2023-02-28T21:56:19.837Z,4.88
2023-02-28T21:58:50.599Z,4.91
2023-02-28T22:01:21.904Z,4.92
2023-02-28T22:03:52.836Z,4.95
2023-02-28T22:06:24.375Z,4.96
2023-02-28T22:08:57.123Z,4.97
2023-02-28T22:11:28.037Z,4.96
2023-02-28T22:13:59.116Z,4.96
2023-02-28T22:16:33.124Z,4.97
2023-02-28T22:19:07.684Z,4.96
2023-02-28T22:21:39.558Z,4.96
2023-02-28T22:24:10.454Z,4.96
2023-02-28T22:26:41.346Z,4.95
2023-02-28T22:29:12.262Z,4.94
2023-02-28T22:31:43.212Z,4.95
2023-02-28T22:34:14.566Z,4.97
2023-02-28T22:36:45.478Z,4.98
2023-02-28T22:39:17.189Z,4.96
2023-02-28T22:41:48.048Z,4.94
2023-02-28T22:44:18.867Z,4.97
2023-02-28T22:46:52.023Z,5.01
2023-02-28T22:49:22.991Z,5.02
2023-02-28T22:51:53.947Z,5.03
2023-02-28T22:54:24.802Z,5.07
2023-02-28T22:56:55.700Z,5.10
2023-02-28T22:59:26.517Z,5.15
2023-02-28T23:01:57.317Z,5.17
2023-02-28T23:04:28.246Z,5.19
2023-02-28T23:06:59.230Z,5.18
2023-02-28T23:09:30.158Z,5.19
2023-02-28T23:12:00.941Z,5.19
2023-02-28T23:14:31.780Z,5.20
2023-02-28T23:17:02.563Z,5.15
2023-02-28T23:19:33.458Z,5.13
2023-02-28T23:22:05.723Z,5.13
2023-02-28T23:24:36.642Z,5.15
2023-02-28T23:27:07.534Z,5.15
2023-02-28T23:29:38.350Z,5.13
2023-02-28T23:32:09.690Z,5.11
2023-02-28T23:34:40.745Z,5.08
2023-02-28T23:37:11.525Z,5.06
2023-02-28T23:39:42.881Z,5.05
2023-02-28T23:42:14.367Z,5.03
2023-02-28T23:44:45.269Z,5.00
2023-02-28T23:47:16.967Z,4.99
2023-02-28T23:49:48.446Z,4.98
2023-02-28T23:52:19.496Z,4.98
2023-02-28T23:54:50.153Z,5.01
2023-02-28T23:57:20.976Z,5.04
2023-02-28T23:59:51.899Z,5.06
